createdAt,value
2017-11-22T00:00:06.817Z,3.60
2017-11-22T00:02:38.448Z,4.43
2017-11-22T00:05:09.297Z,3.85
2017-11-22T00:07:40.167Z,3.37
2017-11-22T00:10:11.021Z,3.60
2017-11-22T00:12:41.863Z,7.13
2017-11-22T00:15:12.701Z,4.73
2017-11-22T00:17:43.567Z,3.17
2017-11-22T00:20:14.409Z,2.57
2017-11-22T00:22:45.300Z,3.30
2017-11-22T00:25:16.159Z,2.50
2017-11-22T00:27:47.006Z,3.20
2017-11-22T00:30:17.841Z,4.27
2017-11-22T00:32:48.722Z,4.07
2017-11-22T00:35:19.553Z,4.40
2017-11-22T00:37:50.407Z,3.30
2017-11-22T00:40:21.245Z,4.00
2017-11-22T00:42:52.112Z,2.70
2017-11-22T00:45:22.953Z,3.33
2017-11-22T00:47:53.801Z,4.50
2017-11-22T00:50:24.624Z,3.20
2017-11-22T00:52:55.492Z,4.47
2017-11-22T00:55:26.339Z,2.50
2017-11-22T00:57:57.204Z,4.00
2017-11-22T01:00:28.072Z,3.10
2017-11-22T01:02:58.940Z,3.07
2017-11-22T01:05:29.792Z,4.03
2017-11-22T01:08:00.649Z,3.33
2017-11-22T01:10:31.501Z,4.50
2017-11-22T01:13:02.352Z,3.90
2017-11-22T01:15:33.187Z,4.40
2017-11-22T01:18:04.061Z,3.93
2017-11-22T01:20:34.925Z,4.03
2017-11-22T01:23:05.857Z,4.80
2017-11-22T01:25:36.693Z,3.97
2017-11-22T01:28:07.545Z,3.70
2017-11-22T01:30:38.396Z,3.13
2017-11-22T01:33:09.234Z,3.80
2017-11-22T01:35:40.071Z,3.20
2017-11-22T01:38:10.925Z,3.07
2017-11-22T01:40:41.777Z,3.60
2017-11-22T01:43:12.629Z,4.07
2017-11-22T01:45:43.495Z,4.40
2017-11-22T01:48:14.344Z,3.20
2017-11-22T01:50:45.205Z,3.97
2017-11-22T01:53:16.071Z,3.20
2017-11-22T01:55:46.934Z,2.63
2017-11-22T01:58:17.792Z,3.07
2017-11-22T02:00:48.644Z,5.00
2017-11-22T02:03:19.497Z,2.50
2017-11-22T02:05:50.357Z,3.10
2017-11-22T02:08:21.233Z,3.00
2017-11-22T02:10:52.083Z,2.97
2017-11-22T02:13:22.942Z,3.23
2017-11-22T02:15:53.773Z,2.73
2017-11-22T02:18:24.633Z,3.10
2017-11-22T02:20:55.625Z,2.60
2017-11-22T02:23:26.461Z,3.83
2017-11-22T02:25:57.308Z,3.23
2017-11-22T02:28:28.162Z,2.83
2017-11-22T02:30:59.013Z,2.83
2017-11-22T02:33:29.872Z,2.50
2017-11-22T02:36:00.713Z,3.13
2017-11-22T02:38:31.551Z,3.80
2017-11-22T02:41:02.437Z,2.87
2017-11-22T02:43:33.270Z,4.77
2017-11-22T02:46:04.125Z,2.80
2017-11-22T02:48:34.999Z,3.10
2017-11-22T02:51:05.840Z,2.47
2017-11-22T02:53:36.689Z,3.73
2017-11-22T02:56:07.555Z,2.70
2017-11-22T02:58:38.413Z,3.30
2017-11-22T03:01:09.257Z,9.50
2017-11-22T03:03:40.125Z,4.37
2017-11-22T03:06:10.953Z,3.00
2017-11-22T03:08:41.805Z,4.60
2017-11-22T03:11:12.752Z,4.30
2017-11-22T03:13:43.588Z,4.47
2017-11-22T03:16:14.429Z,7.20
2017-11-22T03:18:45.301Z,2.30
2017-11-22T03:21:16.174Z,5.23
2017-11-22T03:23:47.042Z,3.10
2017-11-22T03:26:17.890Z,6.30
2017-11-22T03:28:48.717Z,3.00
2017-11-22T03:31:19.550Z,2.27
2017-11-22T03:33:50.397Z,4.60
2017-11-22T03:36:21.237Z,5.60
2017-11-22T03:38:52.416Z,3.23
2017-11-22T03:41:23.246Z,2.45
2017-11-22T03:43:54.173Z,2.80
2017-11-22T03:46:25.053Z,4.80
2017-11-22T03:48:55.911Z,2.60
2017-11-22T03:51:26.753Z,5.53
2017-11-22T03:53:57.597Z,2.33
2017-11-22T03:56:28.429Z,2.80
2017-11-22T03:58:59.285Z,4.87
2017-11-22T04:01:30.133Z,3.17
2017-11-22T04:04:00.992Z,4.43
2017-11-22T04:06:31.826Z,2.70
2017-11-22T04:09:02.694Z,2.67
2017-11-22T04:11:33.524Z,2.20
2017-11-22T04:14:04.357Z,2.47
2017-11-22T04:16:35.165Z,6.07
2017-11-22T04:19:06.046Z,3.57
2017-11-22T04:21:36.883Z,4.43
2017-11-22T04:24:07.751Z,2.30
2017-11-22T04:26:38.612Z,4.60
2017-11-22T04:29:09.452Z,2.70
2017-11-22T04:31:40.318Z,2.13
2017-11-22T04:34:11.165Z,3.83
2017-11-22T04:36:42.036Z,3.30
2017-11-22T04:39:12.864Z,3.43
2017-11-22T04:41:43.733Z,2.43
2017-11-22T04:44:14.580Z,3.37
2017-11-22T04:46:45.440Z,2.63
2017-11-22T04:49:16.284Z,3.77
2017-11-22T04:51:47.145Z,2.27
2017-11-22T04:54:18.000Z,2.30
2017-11-22T04:56:48.860Z,2.20
2017-11-22T04:59:19.708Z,2.57
2017-11-22T05:01:50.562Z,3.13
2017-11-22T05:04:21.420Z,2.20
2017-11-22T05:06:52.265Z,2.70
2017-11-22T05:09:23.124Z,4.47
2017-11-22T05:11:53.987Z,3.83
2017-11-22T05:14:24.831Z,4.10
2017-11-22T05:16:55.659Z,5.53
2017-11-22T05:19:26.501Z,2.10
2017-11-22T05:21:57.331Z,2.17
2017-11-22T05:24:28.178Z,2.10
2017-11-22T05:26:59.038Z,2.13
2017-11-22T05:29:29.902Z,2.40
2017-11-22T05:32:00.745Z,2.33
2017-11-22T05:34:31.612Z,3.00
2017-11-22T05:37:02.459Z,2.60
2017-11-22T05:39:33.328Z,3.20
2017-11-22T05:42:04.193Z,5.73
2017-11-22T05:44:35.028Z,6.33
2017-11-22T05:47:05.877Z,1.70
2017-11-22T05:49:36.730Z,1.50
2017-11-22T05:52:07.593Z,3.33
2017-11-22T05:54:38.433Z,2.30
2017-11-22T05:57:09.293Z,2.17
2017-11-22T05:59:40.136Z,2.23
2017-11-22T06:02:10.993Z,1.80
2017-11-22T06:04:41.828Z,2.13
2017-11-22T06:07:12.648Z,3.33
2017-11-22T06:09:43.484Z,2.03
2017-11-22T06:12:14.320Z,1.97
2017-11-22T06:14:45.169Z,1.60
2017-11-22T06:17:16.021Z,3.03
2017-11-22T06:19:46.890Z,2.20
2017-11-22T06:22:17.743Z,2.47
2017-11-22T06:24:48.596Z,2.30
2017-11-22T06:27:19.463Z,3.10
2017-11-22T06:29:50.316Z,1.73
2017-11-22T06:32:21.178Z,2.03
2017-11-22T06:34:52.018Z,2.27
2017-11-22T06:37:22.880Z,1.93
2017-11-22T06:39:53.731Z,2.43
2017-11-22T06:42:24.601Z,4.00
2017-11-22T06:44:55.447Z,2.17
2017-11-22T06:47:26.309Z,3.03
2017-11-22T06:49:57.141Z,2.53
2017-11-22T06:52:27.984Z,1.97
2017-11-22T06:54:58.822Z,2.53
2017-11-22T06:57:29.685Z,3.23
2017-11-22T07:00:00.537Z,3.60
2017-11-22T07:02:31.403Z,4.13
2017-11-22T07:05:02.255Z,2.03
2017-11-22T07:07:33.206Z,1.30
2017-11-22T07:10:04.033Z,1.80
2017-11-22T07:12:34.861Z,2.30
2017-11-22T07:15:05.672Z,4.90
2017-11-22T07:17:36.510Z,1.37
2017-11-22T07:20:07.372Z,2.07
2017-11-22T07:22:38.606Z,1.73
2017-11-22T07:25:09.446Z,2.47
2017-11-22T07:27:40.277Z,1.70
2017-11-22T07:30:11.136Z,2.30
2017-11-22T07:32:41.986Z,3.10
2017-11-22T07:35:12.842Z,2.90
2017-11-22T07:37:43.668Z,4.70
2017-11-22T07:40:14.516Z,1.20
2017-11-22T07:42:45.391Z,1.63
2017-11-22T07:45:16.256Z,1.50
2017-11-22T07:47:47.104Z,2.10
2017-11-22T07:50:18.005Z,1.77
2017-11-22T07:52:48.868Z,1.63
2017-11-22T07:55:19.702Z,1.90
2017-11-22T07:57:50.570Z,1.80
2017-11-22T08:00:21.413Z,3.20
2017-11-22T08:02:52.295Z,2.70
2017-11-22T08:05:23.136Z,2.10
2017-11-22T08:07:53.966Z,2.57
2017-11-22T08:10:24.783Z,2.20
2017-11-22T08:12:55.640Z,2.23
2017-11-22T08:15:26.497Z,2.87
2017-11-22T08:17:57.373Z,3.40
2017-11-22T08:20:28.212Z,2.87
2017-11-22T08:22:59.073Z,2.40
2017-11-22T08:25:29.926Z,2.70
2017-11-22T08:28:00.772Z,1.80
2017-11-22T08:30:31.633Z,4.57
2017-11-22T08:33:02.481Z,1.90
2017-11-22T08:35:33.349Z,2.93
2017-11-22T08:38:04.225Z,2.30
2017-11-22T08:40:35.076Z,2.90
2017-11-22T08:43:05.912Z,2.50
2017-11-22T08:45:36.770Z,4.57
2017-11-22T08:48:07.622Z,13.20
2017-11-22T08:50:38.469Z,4.40
2017-11-22T08:53:09.341Z,3.83
2017-11-22T08:55:40.184Z,7.30
2017-11-22T08:58:11.051Z,48.17
2017-11-22T09:00:41.917Z,49.77
2017-11-22T09:03:12.772Z,44.13
2017-11-22T09:05:43.640Z,70.77
2017-11-22T09:08:14.503Z,48.23
2017-11-22T09:10:45.475Z,57.20
2017-11-22T09:13:16.316Z,49.50
2017-11-22T09:15:47.160Z,38.50
2017-11-22T09:18:18.077Z,33.43
2017-11-22T09:20:49.017Z,21.83
2017-11-22T09:23:19.862Z,25.23
2017-11-22T09:25:50.729Z,23.37
2017-11-22T09:28:21.605Z,22.27
2017-11-22T09:30:52.459Z,27.67
2017-11-22T09:33:23.329Z,22.87
2017-11-22T09:35:54.203Z,23.90
2017-11-22T09:38:25.038Z,21.10
2017-11-22T09:40:55.910Z,20.63
2017-11-22T09:43:26.740Z,18.07
2017-11-22T09:45:57.587Z,20.20
2017-11-22T09:48:28.449Z,21.27
2017-11-22T09:50:59.344Z,14.87
2017-11-22T09:53:30.203Z,18.80
2017-11-22T09:56:01.070Z,19.60
2017-11-22T09:58:31.908Z,16.80
2017-11-22T10:01:02.780Z,17.93
2017-11-22T10:03:33.736Z,20.73
2017-11-22T10:06:04.561Z,20.80
2017-11-22T10:08:35.413Z,20.10
2017-11-22T10:11:06.268Z,17.50
2017-11-22T10:13:37.202Z,17.83
2017-11-22T10:16:08.032Z,20.07
2017-11-22T10:18:38.863Z,19.10
2017-11-22T10:21:09.702Z,17.80
2017-11-22T10:23:40.563Z,21.90
2017-11-22T10:26:11.440Z,39.90
2017-11-22T10:28:42.285Z,20.67
2017-11-22T10:31:13.282Z,21.40
2017-11-22T10:33:44.137Z,17.35
2017-11-22T10:36:14.986Z,18.47
2017-11-22T10:38:45.877Z,12.63
2017-11-22T10:41:16.733Z,19.07
2017-11-22T10:43:47.613Z,28.90
2017-11-22T10:46:18.461Z,26.10
2017-11-22T10:48:49.318Z,26.10
2017-11-22T10:51:20.184Z,23.10
2017-11-22T10:53:51.042Z,24.47
2017-11-22T10:56:21.914Z,28.03
2017-11-22T10:58:52.771Z,24.40
2017-11-22T11:01:23.640Z,26.80
2017-11-22T11:03:54.502Z,24.00
2017-11-22T11:06:25.361Z,27.83
2017-11-22T11:08:56.215Z,36.67
2017-11-22T11:11:27.089Z,36.10
2017-11-22T11:13:57.943Z,35.70
2017-11-22T11:16:28.808Z,30.93
2017-11-22T11:18:59.664Z,28.63
2017-11-22T11:21:30.510Z,38.00
2017-11-22T11:24:01.377Z,38.13
2017-11-22T11:26:32.214Z,38.70
2017-11-22T11:29:03.085Z,43.40
2017-11-22T11:31:33.947Z,34.17
2017-11-22T11:34:04.775Z,31.80
2017-11-22T11:36:35.645Z,39.77
2017-11-22T11:39:06.572Z,38.93
2017-11-22T11:41:37.412Z,38.97
2017-11-22T11:44:08.264Z,42.57
2017-11-22T11:46:39.143Z,43.67
2017-11-22T11:49:09.989Z,41.07
2017-11-22T11:51:40.860Z,37.23
2017-11-22T11:54:11.711Z,38.47
2017-11-22T11:56:42.571Z,37.57
2017-11-22T11:59:13.457Z,36.53
2017-11-22T12:01:44.328Z,37.90
2017-11-22T12:04:15.209Z,40.83
2017-11-22T12:06:46.045Z,36.33
2017-11-22T12:09:16.924Z,31.47
2017-11-22T12:11:47.887Z,36.07
2017-11-22T12:14:18.730Z,31.00
2017-11-22T12:16:49.560Z,31.40
2017-11-22T12:19:20.427Z,33.67
2017-11-22T12:21:51.267Z,31.70
2017-11-22T12:24:22.162Z,37.90
2017-11-22T12:26:53.009Z,32.67
2017-11-22T12:29:23.880Z,35.13
2017-11-22T12:31:54.724Z,33.10
2017-11-22T12:34:25.598Z,30.07
2017-11-22T12:36:56.461Z,31.07
2017-11-22T12:39:27.333Z,38.07
2017-11-22T12:41:58.197Z,28.87
2017-11-22T12:44:29.033Z,29.30
2017-11-22T12:46:59.900Z,28.10
2017-11-22T12:49:30.757Z,27.73
2017-11-22T12:52:01.648Z,30.60
2017-11-22T12:54:32.522Z,31.60
2017-11-22T12:57:03.384Z,29.00
2017-11-22T12:59:34.304Z,33.40
2017-11-22T13:02:05.135Z,30.60
2017-11-22T13:04:35.991Z,27.60
2017-11-22T13:07:06.868Z,30.83
2017-11-22T13:09:37.737Z,24.30
2017-11-22T13:12:08.591Z,28.50
2017-11-22T13:14:39.469Z,25.13
2017-11-22T13:17:10.313Z,29.17
2017-11-22T13:19:41.193Z,25.63
2017-11-22T13:22:12.042Z,24.40
2017-11-22T13:24:42.921Z,25.33
2017-11-22T13:27:13.777Z,28.87
2017-11-22T13:29:44.628Z,21.23
2017-11-22T13:32:15.482Z,21.73
2017-11-22T13:34:46.353Z,22.77
2017-11-22T13:37:17.215Z,21.40
2017-11-22T13:39:48.057Z,19.47
2017-11-22T13:42:18.936Z,20.53
2017-11-22T13:44:49.783Z,25.80
2017-11-22T13:47:20.645Z,21.57
2017-11-22T13:49:51.492Z,20.50
2017-11-22T13:52:22.362Z,24.27
2017-11-22T13:54:53.204Z,22.77
2017-11-22T13:57:24.080Z,23.77
2017-11-22T13:59:54.918Z,21.00
2017-11-22T14:02:25.798Z,25.03
2017-11-22T14:04:56.648Z,24.37
2017-11-22T14:07:27.572Z,20.17
2017-11-22T14:09:58.411Z,20.20
2017-11-22T14:12:29.270Z,23.43
2017-11-22T14:15:00.151Z,22.60
2017-11-22T14:17:30.983Z,20.70
2017-11-22T14:20:01.880Z,19.80
2017-11-22T14:22:32.857Z,19.20
2017-11-22T14:25:03.711Z,20.20
2017-11-22T14:27:34.556Z,19.87
2017-11-22T14:30:05.449Z,17.83
2017-11-22T14:32:36.295Z,19.00
2017-11-22T14:35:07.160Z,19.70
2017-11-22T14:37:38.043Z,18.17
2017-11-22T14:40:08.896Z,21.03
2017-11-22T14:42:39.741Z,20.50
2017-11-22T14:45:10.599Z,16.97
2017-11-22T14:47:41.438Z,27.23
2017-11-22T14:50:12.301Z,21.13
2017-11-22T14:52:43.152Z,17.17
2017-11-22T14:55:14.013Z,15.77
2017-11-22T14:57:44.869Z,23.50
2017-11-22T15:00:15.732Z,15.17
2017-11-22T15:02:46.570Z,17.87
2017-11-22T15:05:17.452Z,18.57
2017-11-22T15:07:48.293Z,15.83
2017-11-22T15:10:19.178Z,17.40
2017-11-22T15:12:50.022Z,18.10
2017-11-22T15:15:20.897Z,16.23
2017-11-22T15:17:51.756Z,20.50
2017-11-22T15:20:22.700Z,17.33
2017-11-22T15:22:53.542Z,17.07
2017-11-22T15:25:24.386Z,16.30
2017-11-22T15:27:55.263Z,17.77
2017-11-22T15:30:26.145Z,14.17
2017-11-22T15:32:57.013Z,14.97
2017-11-22T15:35:27.853Z,17.10
2017-11-22T15:37:58.727Z,14.00
2017-11-22T15:40:29.573Z,11.60
2017-11-22T15:43:00.567Z,14.00
2017-11-22T15:45:31.425Z,15.85
2017-11-22T15:48:02.278Z,13.77
2017-11-22T15:50:33.137Z,16.60
2017-11-22T15:53:04.030Z,15.23
2017-11-22T15:55:34.894Z,12.67
2017-11-22T15:58:05.767Z,11.23
2017-11-22T16:00:36.641Z,16.30
2017-11-22T16:03:07.505Z,12.43
2017-11-22T16:05:38.374Z,13.70
2017-11-22T16:08:09.245Z,14.00
2017-11-22T16:10:40.113Z,13.43
2017-11-22T16:13:10.990Z,11.33
2017-11-22T16:15:41.837Z,12.50
2017-11-22T16:18:12.705Z,15.33
2017-11-22T16:20:43.564Z,13.77
2017-11-22T16:23:14.440Z,10.63
2017-11-22T16:25:45.313Z,13.70
2017-11-22T16:28:16.159Z,15.87
2017-11-22T16:30:47.029Z,11.40
2017-11-22T16:33:17.885Z,14.17
2017-11-22T16:35:48.727Z,12.10
2017-11-22T16:38:19.580Z,14.83
2017-11-22T16:40:50.470Z,14.83
2017-11-22T16:43:21.304Z,13.60
2017-11-22T16:45:52.146Z,11.83
2017-11-22T16:48:23.015Z,11.47
2017-11-22T16:50:53.872Z,11.63
2017-11-22T16:53:24.760Z,13.40
2017-11-22T16:55:55.606Z,12.77
2017-11-22T16:58:26.462Z,13.33
2017-11-22T17:00:57.325Z,10.53
2017-11-22T17:03:28.199Z,11.27
2017-11-22T17:05:59.053Z,10.70
2017-11-22T17:08:29.904Z,11.57
2017-11-22T17:11:00.792Z,10.70
2017-11-22T17:13:31.636Z,11.50
2017-11-22T17:16:02.506Z,10.77
2017-11-22T17:18:33.351Z,12.17
2017-11-22T17:21:04.340Z,9.70
2017-11-22T17:23:35.177Z,9.33
2017-11-22T17:26:06.043Z,9.50
2017-11-22T17:28:36.880Z,12.93
2017-11-22T17:31:07.751Z,8.37
2017-11-22T17:33:38.723Z,11.37
2017-11-22T17:36:09.570Z,11.53
2017-11-22T17:38:40.435Z,10.40
2017-11-22T17:41:11.293Z,11.17
2017-11-22T17:43:42.137Z,9.37
2017-11-22T17:46:13.025Z,8.80
2017-11-22T17:48:43.866Z,10.67
2017-11-22T17:51:14.758Z,8.43
2017-11-22T17:53:45.628Z,8.23
2017-11-22T17:56:16.524Z,8.30
2017-11-22T17:58:47.392Z,12.23
2017-11-22T18:01:18.263Z,10.87
2017-11-22T18:03:49.110Z,11.00
2017-11-22T18:06:19.980Z,10.90
2017-11-22T18:08:50.833Z,11.10
2017-11-22T18:11:21.724Z,9.30
2017-11-22T18:13:52.605Z,8.87
2017-11-22T18:16:23.436Z,8.63
2017-11-22T18:18:54.317Z,8.00
2017-11-22T18:21:25.156Z,8.93
2017-11-22T18:23:56.022Z,10.13
2017-11-22T18:26:26.881Z,7.50
2017-11-22T18:28:57.736Z,7.70
2017-11-22T18:31:28.598Z,8.67
2017-11-22T18:33:59.464Z,9.10
2017-11-22T18:36:30.324Z,10.03
2017-11-22T18:39:01.183Z,7.13
2017-11-22T18:41:32.064Z,9.93
2017-11-22T18:44:02.928Z,7.17
2017-11-22T18:46:33.790Z,8.20
2017-11-22T18:49:04.677Z,6.80
2017-11-22T18:51:35.560Z,8.80
2017-11-22T18:54:06.408Z,8.07
2017-11-22T18:56:37.308Z,7.90
2017-11-22T18:59:08.140Z,8.70
2017-11-22T19:01:38.999Z,6.97
2017-11-22T19:04:09.889Z,9.07
2017-11-22T19:06:40.777Z,10.03
2017-11-22T19:09:11.645Z,6.70
2017-11-22T19:11:42.517Z,7.30
2017-11-22T19:14:13.456Z,5.00
2017-11-22T19:16:44.288Z,5.97
2017-11-22T19:19:15.193Z,7.23
2017-11-22T19:21:46.043Z,5.90
2017-11-22T19:24:16.922Z,7.50
2017-11-22T19:26:47.807Z,7.43
2017-11-22T19:29:18.708Z,8.10
2017-11-22T19:31:49.597Z,7.53
2017-11-22T19:34:20.457Z,6.40
2017-11-22T19:36:51.318Z,9.53
2017-11-22T19:39:22.233Z,5.80
2017-11-22T19:41:53.079Z,9.20
2017-11-22T19:44:23.957Z,8.73
2017-11-22T19:46:54.805Z,6.90
2017-11-22T19:49:25.681Z,6.10
2017-11-22T19:51:56.560Z,7.13
2017-11-22T19:54:27.445Z,7.13
2017-11-22T19:56:58.346Z,5.80
2017-11-22T19:59:29.335Z,7.60
2017-11-22T20:02:00.210Z,7.43
2017-11-22T20:04:31.112Z,7.97
2017-11-22T20:07:01.976Z,6.90
2017-11-22T20:09:32.874Z,7.10
2017-11-22T20:12:03.767Z,6.20
2017-11-22T20:14:34.662Z,5.43
2017-11-22T20:17:05.538Z,5.90
2017-11-22T20:19:36.403Z,7.03
2017-11-22T20:22:07.258Z,7.50
2017-11-22T20:24:38.146Z,7.07
2017-11-22T20:27:09.042Z,7.20
2017-11-22T20:29:39.893Z,7.10
2017-11-22T20:32:10.828Z,5.20
2017-11-22T20:34:41.796Z,4.63
2017-11-22T20:37:12.647Z,10.63
2017-11-22T20:39:43.516Z,9.60
2017-11-22T20:42:14.373Z,8.73
2017-11-22T20:44:45.288Z,10.20
2017-11-22T20:47:16.181Z,9.33
2017-11-22T20:49:47.052Z,8.40
2017-11-22T20:52:17.905Z,8.60
2017-11-22T20:54:48.804Z,7.60
2017-11-22T20:57:19.681Z,9.00
2017-11-22T20:59:50.656Z,9.23
2017-11-22T21:02:21.512Z,10.93
2017-11-22T21:04:52.432Z,8.67
2017-11-22T21:07:23.306Z,8.17
2017-11-22T21:09:54.192Z,10.30
2017-11-22T21:12:25.068Z,9.30
2017-11-22T21:14:55.925Z,9.00
2017-11-22T21:17:26.814Z,8.63
2017-11-22T21:19:57.675Z,8.23
2017-11-22T21:22:28.584Z,10.27
2017-11-22T21:24:59.437Z,10.83
2017-11-22T21:27:30.317Z,13.33
2017-11-22T21:30:01.214Z,9.73
2017-11-22T21:32:32.070Z,11.63
2017-11-22T21:35:02.990Z,10.33
2017-11-22T21:37:33.894Z,13.20
2017-11-22T21:40:04.775Z,13.43
2017-11-22T21:42:35.695Z,14.93
2017-11-22T21:45:06.579Z,12.60
2017-11-22T21:47:37.425Z,11.67
2017-11-22T21:50:08.323Z,13.13
2017-11-22T21:52:39.176Z,12.10
2017-11-22T21:55:10.104Z,12.30
2017-11-22T21:57:40.946Z,13.37
2017-11-22T22:00:11.857Z,14.67
2017-11-22T22:02:42.708Z,11.23
2017-11-22T22:05:13.585Z,9.60
2017-11-22T22:07:44.439Z,15.80
2017-11-22T22:10:15.300Z,11.90
2017-11-22T22:12:46.162Z,12.43
2017-11-22T22:15:17.025Z,15.50
2017-11-22T22:17:47.879Z,12.90
2017-11-22T22:20:18.888Z,11.23
2017-11-22T22:22:49.745Z,8.38
2017-11-22T22:25:20.760Z,8.53
2017-11-22T22:27:51.628Z,13.13
2017-11-22T22:30:22.489Z,9.03
2017-11-22T22:32:53.329Z,8.13
2017-11-22T22:35:24.222Z,6.90
2017-11-22T22:37:55.083Z,8.27
2017-11-22T22:40:25.956Z,9.87
2017-11-22T22:42:57.678Z,8.18
2017-11-22T22:45:28.537Z,9.23
2017-11-22T22:47:59.406Z,8.93
2017-11-22T22:50:30.275Z,7.70
2017-11-22T22:53:01.151Z,10.33
2017-11-22T22:55:32.005Z,9.43
2017-11-22T22:58:02.873Z,7.27
2017-11-22T23:00:33.708Z,8.07
2017-11-22T23:03:04.583Z,9.97
2017-11-22T23:05:35.454Z,7.30
2017-11-22T23:08:06.338Z,8.27
2017-11-22T23:10:37.214Z,10.23
2017-11-22T23:13:08.078Z,8.00
2017-11-22T23:15:38.933Z,6.90
2017-11-22T23:18:09.802Z,9.40
2017-11-22T23:20:40.690Z,8.80
2017-11-22T23:23:11.532Z,7.27
2017-11-22T23:25:42.392Z,5.77
2017-11-22T23:28:13.264Z,7.60
2017-11-22T23:30:44.113Z,5.10
2017-11-22T23:33:15.100Z,6.90
2017-11-22T23:35:45.942Z,6.57
2017-11-22T23:38:16.805Z,6.50
2017-11-22T23:40:47.666Z,5.57
2017-11-22T23:43:18.509Z,5.93
2017-11-22T23:45:49.402Z,9.43
2017-11-22T23:48:20.250Z,7.80
2017-11-22T23:50:51.113Z,6.60
2017-11-22T23:53:21.976Z,5.53
2017-11-22T23:55:52.844Z,6.10
2017-11-22T23:58:23.704Z,4.97
